TimeAKDT,TemperatureF,Dew PointF,Humidity,Sea Level PressureIn,VisibilityMPH,Wind Direction,Wind SpeedMPH,Gust SpeedMPH,PrecipitationIn,Events,Conditions,WindDirDegrees,DateUTC
12:53 AM,24.1,21.0,88,29.75,10.0,NE,3.5,-,N/A,,Mostly Cloudy,40,2011-10-14 08:53:00
1:53 AM,25.0,21.0,85,29.73,10.0,NE,4.6,-,N/A,,Mostly Cloudy,50,2011-10-14 09:53:00
2:53 AM,24.1,21.0,88,29.70,10.0,Calm,Calm,-,N/A,,Mostly Cloudy,0,2011-10-14 10:53:00
3:53 AM,26.6,21.2,80,29.64,10.0,Calm,Calm,-,N/A,,Mostly Cloudy,0,2011-10-14 11:53:00
4:53 AM,25.0,21.0,85,29.62,10.0,NE,4.6,-,N/A,,Mostly Cloudy,50,2011-10-14 12:53:00
5:53 AM,27.0,21.9,81,29.59,10.0,NNE,3.5,-,N/A,,Mostly Cloudy,30,2011-10-14 13:53:00
6:53 AM,28.9,24.1,82,29.55,10.0,North,4.6,-,N/A,,Mostly Cloudy,10,2011-10-14 14:53:00
7:53 AM,34.0,24.1,67,29.52,10.0,NNE,6.9,-,N/A,,Mostly Cloudy,20,2011-10-14 15:53:00
8:53 AM,30.0,24.1,79,29.49,10.0,NNE,5.8,-,N/A,,Mostly Cloudy,30,2011-10-14 16:53:00
9:53 AM,36.0,24.1,62,29.47,10.0,North,8.1,-,N/A,,Mostly Cloudy,10,2011-10-14 17:53:00
10:53 AM,39.0,25.0,57,29.45,10.0,NNE,5.8,-,N/A,,Mostly Cloudy,20,2011-10-14 18:53:00
11:53 AM,42.1,24.1,49,29.45,10.0,ENE,6.9,-,N/A,,Mostly Cloudy,60,2011-10-14 19:53:00
12:53 PM,44.1,25.0,47,29.44,10.0,ENE,6.9,-,N/A,,Mostly Cloudy,60,2011-10-14 20:53:00
1:53 PM,45.0,24.1,44,29.42,10.0,ENE,8.1,-,N/A,,Mostly Cloudy,70,2011-10-14 21:53:00
2:53 PM,48.9,25.0,39,29.40,10.0,East,9.2,-,N/A,,Scattered Clouds,80,2011-10-14 22:53:00
3:53 PM,48.9,25.0,39,29.39,10.0,East,5.8,-,N/A,,Scattered Clouds,80,2011-10-14 23:53:00
4:53 PM,48.9,25.0,39,29.39,10.0,ESE,5.8,-,N/A,,Mostly Cloudy,110,2011-10-15 00:53:00
5:53 PM,44.1,25.0,47,29.38,10.0,ENE,3.5,-,N/A,,Mostly Cloudy,60,2011-10-15 01:53:00
6:53 PM,36.0,26.1,67,29.39,10.0,Calm,Calm,-,N/A,,Mostly Cloudy,0,2011-10-15 02:53:00
7:53 PM,32.0,25.0,75,29.39,10.0,NNE,3.5,-,N/A,,Mostly Cloudy,20,2011-10-15 03:53:00
8:53 PM,32.0,26.1,79,29.39,10.0,North,4.6,-,N/A,,Mostly Cloudy,10,2011-10-15 04:53:00
9:53 PM,37.0,26.1,65,29.39,10.0,NNE,8.1,-,N/A,,Mostly Cloudy,20,2011-10-15 05:53:00
10:53 PM,35.1,26.1,70,29.39,10.0,North,5.8,-,N/A,,Mostly Cloudy,10,2011-10-15 06:53:00
11:53 PM,34.0,26.1,73,29.40,10.0,NNE,3.5,-,N/A,,Mostly Cloudy,20,2011-10-15 07:53:00